sensor_id;sensor_type;location;lat;lon;timestamp;pressure;altitude;pressure_sealevel;temperature;humidity
22047;BME280;11187;49.412;20.956;2022-12-18T00:01:57;96034.47;;;-3.76;100.00
22047;BME280;11187;49.412;20.956;2022-12-18T00:04:51;96043.63;;;-3.76;100.00
22047;BME280;11187;49.412;20.956;2022-12-18T00:07:25;96050.81;;;-3.83;100.00
22047;BME280;11187;49.412;20.956;2022-12-18T00:10:11;96055.66;;;-3.86;100.00
22047;BME280;11187;49.412;20.956;2022-12-18T00:12:45;96059.78;;;-3.86;100.00
22047;BME280;11187;49.412;20.956;2022-12-18T00:15:34;96071.38;;;-3.88;100.00
22047;BME280;11187;49.412;20.956;2022-12-18T00:18:07;96084.50;;;-3.92;100.00
22047;BME280;11187;49.412;20.956;2022-12-18T00:21:00;96089.16;;;-3.99;100.00
22047;BME280;11187;49.412;20.956;2022-12-18T00:23:35;96091.44;;;-4.03;100.00
22047;BME280;11187;49.412;20.956;2022-12-18T00:26:31;96094.03;;;-4.02;100.00
22047;BME280;11187;49.412;20.956;2022-12-18T00:29:24;96103.00;;;-4.05;100.00
22047;BME280;11187;49.412;20.956;2022-12-18T00:31:58;96101.28;;;-4.06;100.00
22047;BME280;11187;49.412;20.956;2022-12-18T00:34:44;96107.91;;;-4.07;100.00
22047;BME280;11187;49.412;20.956;2022-12-18T00:37:18;96117.75;;;-4.10;100.00
22047;BME280;11187;49.412;20.956;2022-12-18T00:40:05;96128.09;;;-4.18;100.00
22047;BME280;11187;49.412;20.956;2022-12-18T00:42:38;96129.59;;;-4.22;100.00
22047;BME280;11187;49.412;20.956;2022-12-18T00:45:36;96134.50;;;-4.24;100.00
22047;BME280;11187;49.412;20.956;2022-12-18T00:48:10;96139.34;;;-4.27;100.00
22047;BME280;11187;49.412;20.956;2022-12-18T00:51:03;96139.97;;;-4.31;100.00
22047;BME280;11187;49.412;20.956;2022-12-18T00:53:57;96140.81;;;-4.30;100.00
22047;BME280;11187;49.412;20.956;2022-12-18T00:56:54;96145.13;;;-4.28;100.00
22047;BME280;11187;49.412;20.956;2022-12-18T00:59:30;96150.81;;;-4.30;100.00
22047;BME280;11187;49.412;20.956;2022-12-18T01:02:24;96150.91;;;-4.29;100.00
22047;BME280;11187;49.412;20.956;2022-12-18T01:05:18;96148.22;;;-4.32;100.00
22047;BME280;11187;49.412;20.956;2022-12-18T01:07:52;96148.91;;;-4.34;100.00
22047;BME280;11187;49.412;20.956;2022-12-18T01:10:41;96165.47;;;-4.36;100.00
22047;BME280;11187;49.412;20.956;2022-12-18T01:13:15;96163.56;;;-4.41;100.00
22047;BME280;11187;49.412;20.956;2022-12-18T01:16:01;96167.72;;;-4.41;100.00
22047;BME280;11187;49.412;20.956;2022-12-18T01:18:35;96173.56;;;-4.41;100.00
22047;BME280;11187;49.412;20.956;2022-12-18T01:21:22;96180.31;;;-4.39;100.00
22047;BME280;11187;49.412;20.956;2022-12-18T01:23:56;96178.56;;;-4.41;100.00
22047;BME280;11187;49.412;20.956;2022-12-18T01:26:50;96183.84;;;-4.51;100.00
22047;BME280;11187;49.412;20.956;2022-12-18T01:29:44;96178.69;;;-4.54;100.00
22047;BME280;11187;49.412;20.956;2022-12-18T01:32:18;96176.69;;;-4.59;100.00
22047;BME280;11187;49.412;20.956;2022-12-18T01:35:05;96181.59;;;-4.61;100.00
22047;BME280;11187;49.412;20.956;2022-12-18T01:37:39;96179.09;;;-4.61;100.00
22047;BME280;11187;49.412;20.956;2022-12-18T01:40:25;96188.22;;;-4.62;100.00
22047;BME280;11187;49.412;20.956;2022-12-18T01:42:59;96185.56;;;-4.65;100.00
22047;BME280;11187;49.412;20.956;2022-12-18T01:45:39;96192.97;;;-4.66;100.00
22047;BME280;11187;49.412;20.956;2022-12-18T01:48:18;96192.09;;;-4.67;100.00
22047;BME280;11187;49.412;20.956;2022-12-18T01:50:52;96202.69;;;-4.71;100.00
22047;BME280;11187;49.412;20.956;2022-12-18T01:53:40;96205.28;;;-4.69;100.00
22047;BME280;11187;49.412;20.956;2022-12-18T01:56:21;96200.97;;;-4.72;100.00
22047;BME280;11187;49.412;20.956;2022-12-18T01:59:15;96204.94;;;-4.75;100.00
22047;BME280;11187;49.412;20.956;2022-12-18T02:02:09;96204.81;;;-4.77;100.00
22047;BME280;11187;49.412;20.956;2022-12-18T02:04:43;96208.81;;;-4.80;100.00
22047;BME280;11187;49.412;20.956;2022-12-18T02:07:52;96219.38;;;-4.85;100.00
22047;BME280;11187;49.412;20.956;2022-12-18T02:10:39;96222.31;;;-4.92;100.00
22047;BME280;11187;49.412;20.956;2022-12-18T02:16:51;96216.88;;;-4.99;100.00
22047;BME280;11187;49.412;20.956;2022-12-18T02:28:35;96242.22;;;-5.07;100.00
22047;BME280;11187;49.412;20.956;2022-12-18T02:31:35;96246.19;;;-5.10;100.00
22047;BME280;11187;49.412;20.956;2022-12-18T02:34:31;96240.41;;;-5.09;100.00
22047;BME280;11187;49.412;20.956;2022-12-18T02:37:27;96243.69;;;-5.10;100.00
22047;BME280;11187;49.412;20.956;2022-12-18T02:40:02;96243.50;;;-5.13;100.00
22047;BME280;11187;49.412;20.956;2022-12-18T02:42:50;96255.22;;;-5.12;100.00
22047;BME280;11187;49.412;20.956;2022-12-18T02:45:24;96253.41;;;-5.15;100.00
22047;BME280;11187;49.412;20.956;2022-12-18T02:48:10;96256.59;;;-5.17;100.00
22047;BME280;11187;49.412;20.956;2022-12-18T02:51:08;96252.00;;;-5.25;100.00
22047;BME280;11187;49.412;20.956;2022-12-18T02:54:06;96266.59;;;-5.31;100.00
22047;BME280;11187;49.412;20.956;2022-12-18T02:56:46;96261.91;;;-5.39;100.00
22047;BME280;11187;49.412;20.956;2022-12-18T02:59:46;96268.34;;;-5.43;100.00
22047;BME280;11187;49.412;20.956;2022-12-18T03:02:32;96268.34;;;-5.43;100.00
22047;BME280;11187;49.412;20.956;2022-12-18T03:05:33;96268.16;;;-5.46;100.00
22047;BME280;11187;49.412;20.956;2022-12-18T03:08:16;96277.88;;;-5.51;100.00
22047;BME280;11187;49.412;20.956;2022-12-18T03:11:13;96282.56;;;-5.55;100.00
22047;BME280;11187;49.412;20.956;2022-12-18T03:14:31;96280.88;;;-5.56;100.00
22047;BME280;11187;49.412;20.956;2022-12-18T03:17:10;96285.66;;;-5.59;100.00
22047;BME280;11187;49.412;20.956;2022-12-18T03:20:02;96278.72;;;-5.63;100.00
22047;BME280;11187;49.412;20.956;2022-12-18T03:22:37;96287.09;;;-5.63;100.00
22047;BME280;11187;49.412;20.956;2022-12-18T03:25:25;96293.63;;;-5.65;100.00
22047;BME280;11187;49.412;20.956;2022-12-18T03:28:02;96298.50;;;-5.67;100.00
22047;BME280;11187;49.412;20.956;2022-12-18T03:30:58;96306.66;;;-5.69;100.00
22047;BME280;11187;49.412;20.956;2022-12-18T03:33:47;96306.66;;;-5.69;100.00
22047;BME280;11187;49.412;20.956;2022-12-18T03:36:43;96310.81;;;-5.70;100.00
22047;BME280;11187;49.412;20.956;2022-12-18T03:39:17;96311.66;;;-5.69;100.00
22047;BME280;11187;49.412;20.956;2022-12-18T03:42:18;96315.19;;;-5.66;100.00
22047;BME280;11187;49.412;20.956;2022-12-18T03:48:37;96320.78;;;-5.70;100.00
22047;BME280;11187;49.412;20.956;2022-12-18T03:51:25;96326.44;;;-5.72;100.00
22047;BME280;11187;49.412;20.956;2022-12-18T03:54:14;96323.84;;;-5.74;100.00
22047;BME280;11187;49.412;20.956;2022-12-18T03:56:54;96318.84;;;-5.74;100.00
22047;BME280;11187;49.412;20.956;2022-12-18T03:59:45;96330.53;;;-5.73;100.00
22047;BME280;11187;49.412;20.956;2022-12-18T04:02:20;96329.00;;;-5.71;100.00
22047;BME280;11187;49.412;20.956;2022-12-18T04:05:10;96337.34;;;-5.70;100.00
22047;BME280;11187;49.412;20.956;2022-12-18T04:07:47;96339.84;;;-5.70;100.00
22047;BME280;11187;49.412;20.956;2022-12-18T04:10:33;96346.56;;;-5.69;100.00
22047;BME280;11187;49.412;20.956;2022-12-18T04:13:07;96344.09;;;-5.69;100.00
22047;BME280;11187;49.412;20.956;2022-12-18T04:16:00;96355.47;;;-5.73;100.00
22047;BME280;11187;49.412;20.956;2022-12-18T04:18:55;96355.19;;;-5.77;100.00
22047;BME280;11187;49.412;20.956;2022-12-18T04:21:49;96359.31;;;-5.78;100.00
22047;BME280;11187;49.412;20.956;2022-12-18T04:24:23;96362.59;;;-5.79;100.00
22047;BME280;11187;49.412;20.956;2022-12-18T04:27:16;96366.81;;;-5.78;100.00
22047;BME280;11187;49.412;20.956;2022-12-18T04:30:11;96371.00;;;-5.77;100.00
22047;BME280;11187;49.412;20.956;2022-12-18T04:33:11;96370.09;;;-5.79;100.00
22047;BME280;11187;49.412;20.956;2022-12-18T04:36:06;96378.50;;;-5.77;100.00
22047;BME280;11187;49.412;20.956;2022-12-18T04:38:39;96377.56;;;-5.79;100.00
22047;BME280;11187;49.412;20.956;2022-12-18T04:41:32;96384.38;;;-5.76;100.00
22047;BME280;11187;49.412;20.956;2022-12-18T04:44:26;96393.47;;;-5.77;100.00
22047;BME280;11187;49.412;20.956;2022-12-18T04:47:03;96395.97;;;-5.77;100.00
22047;BME280;11187;49.412;20.956;2022-12-18T04:49:56;96402.69;;;-5.76;100.00
22047;BME280;11187;49.412;20.956;2022-12-18T04:52:30;96401.53;;;-5.81;100.00
22047;BME280;11187;49.412;20.956;2022-12-18T04:55:16;96402.66;;;-5.89;100.00
22047;BME280;11187;49.412;20.956;2022-12-18T04:57:50;96408.16;;;-5.95;99.73
22047;BME280;11187;49.412;20.956;2022-12-18T05:00:30;96417.25;;;-5.95;100.00
22047;BME280;11187;49.412;20.956;2022-12-18T05:03:09;96422.81;;;-5.99;99.61
22047;BME280;11187;49.412;20.956;2022-12-18T05:05:43;96428.56;;;-6.00;99.68
22047;BME280;11187;49.412;20.956;2022-12-18T05:08:39;96428.56;;;-6.00;99.69
22047;BME280;11187;49.412;20.956;2022-12-18T05:11:32;96429.34;;;-6.01;99.58
22047;BME280;11187;49.412;20.956;2022-12-18T05:14:26;96430.06;;;-6.02;99.85
22047;BME280;11187;49.412;20.956;2022-12-18T05:17:20;96432.50;;;-6.04;100.00
22047;BME280;11187;49.412;20.956;2022-12-18T05:19:54;96435.72;;;-6.05;100.00
22047;BME280;11187;49.412;20.956;2022-12-18T05:22:40;96434.56;;;-6.10;100.00
22047;BME280;11187;49.412;20.956;2022-12-18T05:25:14;96453.53;;;-6.12;99.87
22047;BME280;11187;49.412;20.956;2022-12-18T05:28:00;96458.63;;;-6.11;100.00
22047;BME280;11187;49.412;20.956;2022-12-18T05:30:37;96460.34;;;-6.10;99.67
22047;BME280;11187;49.412;20.956;2022-12-18T05:33:25;96460.25;;;-6.11;100.00
22047;BME280;11187;49.412;20.956;2022-12-18T05:36:00;96461.03;;;-6.12;99.90
22047;BME280;11187;49.412;20.956;2022-12-18T05:38:48;96470.81;;;-6.15;99.26
22047;BME280;11187;49.412;20.956;2022-12-18T05:41:21;96473.38;;;-6.14;100.00
22047;BME280;11187;49.412;20.956;2022-12-18T05:44:08;96473.38;;;-6.14;99.67
22047;BME280;11187;49.412;20.956;2022-12-18T05:46:44;96468.94;;;-6.18;99.27
22047;BME280;11187;49.412;20.956;2022-12-18T05:49:30;96472.50;;;-6.14;99.70
22047;BME280;11187;49.412;20.956;2022-12-18T05:52:04;96478.47;;;-6.12;99.92
22047;BME280;11187;49.412;20.956;2022-12-18T05:54:50;96482.69;;;-6.11;99.85
22047;BME280;11187;49.412;20.956;2022-12-18T05:57:24;96489.84;;;-6.16;99.03
22047;BME280;11187;49.412;20.956;2022-12-18T06:00:11;96485.75;;;-6.15;99.60
22047;BME280;11187;49.412;20.956;2022-12-18T06:02:47;96490.81;;;-6.14;99.61
22047;BME280;11187;49.412;20.956;2022-12-18T06:05:43;96503.41;;;-6.12;99.78
22047;BME280;11187;49.412;20.956;2022-12-18T06:08:36;96515.88;;;-6.12;99.14
22047;BME280;11187;49.412;20.956;2022-12-18T06:11:12;96516.84;;;-6.10;99.48
22047;BME280;11187;49.412;20.956;2022-12-18T06:14:06;96516.28;;;-6.06;99.90
22047;BME280;11187;49.412;20.956;2022-12-18T06:16:59;96512.34;;;-6.02;99.70
22047;BME280;11187;49.412;20.956;2022-12-18T06:19:53;96525.91;;;-5.99;99.92
22047;BME280;11187;49.412;20.956;2022-12-18T06:22:27;96534.91;;;-6.01;99.47
22047;BME280;11187;49.412;20.956;2022-12-18T06:25:15;96531.75;;;-5.98;99.52
22047;BME280;11187;49.412;20.956;2022-12-18T06:27:48;96526.66;;;-6.00;99.60
22047;BME280;11187;49.412;20.956;2022-12-18T06:30:46;96528.28;;;-6.00;99.36
22047;BME280;11187;49.412;20.956;2022-12-18T06:33:39;96530.03;;;-5.99;99.71
22047;BME280;11187;49.412;20.956;2022-12-18T06:36:13;96535.75;;;-6.00;99.60
22047;BME280;11187;49.412;20.956;2022-12-18T06:39:07;96541.41;;;-6.03;99.44
22047;BME280;11187;49.412;20.956;2022-12-18T06:41:41;96542.28;;;-6.02;99.05
22047;BME280;11187;49.412;20.956;2022-12-18T06:44:34;96550.53;;;-6.03;99.25
22047;BME280;11187;49.412;20.956;2022-12-18T06:47:08;96551.28;;;-6.04;98.93
22047;BME280;11187;49.412;20.956;2022-12-18T06:50:02;96558.00;;;-6.03;98.96
22047;BME280;11187;49.412;20.956;2022-12-18T06:52:55;96566.53;;;-6.00;99.38
22047;BME280;11187;49.412;20.956;2022-12-18T06:55:29;96567.44;;;-5.99;98.84
22047;BME280;11187;49.412;20.956;2022-12-18T06:58:22;96572.63;;;-5.96;99.27
22047;BME280;11187;49.412;20.956;2022-12-18T07:01:00;96574.34;;;-5.95;99.56
22047;BME280;11187;49.412;20.956;2022-12-18T07:03:52;96579.25;;;-5.97;99.26
22047;BME280;11187;49.412;20.956;2022-12-18T07:06:27;96584.22;;;-5.97;99.36
22047;BME280;11187;49.412;20.956;2022-12-18T07:09:20;96593.41;;;-5.96;99.24
22047;BME280;11187;49.412;20.956;2022-12-18T07:12:14;96593.09;;;-6.00;98.57
22047;BME280;11187;49.412;20.956;2022-12-18T07:14:48;96592.56;;;-5.96;98.81
22047;BME280;11187;49.412;20.956;2022-12-18T07:17:41;96596.97;;;-5.92;99.03
22047;BME280;11187;49.412;20.956;2022-12-18T07:20:36;96596.97;;;-5.92;99.59
22047;BME280;11187;49.412;20.956;2022-12-18T07:23:09;96609.19;;;-5.83;99.56
22047;BME280;11187;49.412;20.956;2022-12-18T07:25:49;96613.41;;;-5.82;99.21
22047;BME280;11187;49.412;20.956;2022-12-18T07:28:28;96623.59;;;-5.79;99.74
22047;BME280;11187;49.412;20.956;2022-12-18T07:31:17;96633.69;;;-5.78;99.22
22047;BME280;11187;49.412;20.956;2022-12-18T07:33:56;96629.34;;;-5.80;99.17
22047;BME280;11187;49.412;20.956;2022-12-18T07:36:50;96637.03;;;-5.77;99.44
22047;BME280;11187;49.412;20.956;2022-12-18T07:39:44;96644.31;;;-5.80;98.60
22047;BME280;11187;49.412;20.956;2022-12-18T07:42:31;96647.88;;;-5.77;99.09
22047;BME280;11187;49.412;20.956;2022-12-18T07:45:25;96653.22;;;-5.72;98.79
22047;BME280;11187;49.412;20.956;2022-12-18T07:47:59;96655.03;;;-5.70;98.60
22047;BME280;11187;49.412;20.956;2022-12-18T07:50:45;96654.38;;;-5.67;98.33
22047;BME280;11187;49.412;20.956;2022-12-18T07:53:19;96656.97;;;-5.66;98.58
22047;BME280;11187;49.412;20.956;2022-12-18T07:56:08;96665.53;;;-5.62;98.34
22047;BME280;11187;49.412;20.956;2022-12-18T07:58:58;96660.72;;;-5.59;98.28
22047;BME280;11187;49.412;20.956;2022-12-18T08:01:51;96660.50;;;-5.50;98.70
22047;BME280;11187;49.412;20.956;2022-12-18T08:04:45;96667.63;;;-5.43;98.62
22047;BME280;11187;49.412;20.956;2022-12-18T08:07:19;96669.69;;;-5.37;98.50
22047;BME280;11187;49.412;20.956;2022-12-18T08:10:06;96672.91;;;-5.27;98.44
22047;BME280;11187;49.412;20.956;2022-12-18T08:12:40;96678.28;;;-5.20;97.72
22047;BME280;11187;49.412;20.956;2022-12-18T08:15:36;96675.25;;;-5.16;97.15
22047;BME280;11187;49.412;20.956;2022-12-18T08:18:34;96673.06;;;-5.12;96.85
22047;BME280;11187;49.412;20.956;2022-12-18T08:21:13;96676.72;;;-5.07;96.74
22047;BME280;11187;49.412;20.956;2022-12-18T08:24:04;96674.03;;;-5.10;95.74
22047;BME280;11187;49.412;20.956;2022-12-18T08:26:37;96680.84;;;-5.07;95.99
22047;BME280;11187;49.412;20.956;2022-12-18T08:29:43;96681.16;;;-5.03;96.43
22047;BME280;11187;49.412;20.956;2022-12-18T08:32:17;96679.81;;;-4.97;96.64
22047;BME280;11187;49.412;20.956;2022-12-18T08:34:58;96676.75;;;-4.93;96.69
22047;BME280;11187;49.412;20.956;2022-12-18T08:37:37;96677.06;;;-4.89;97.10
22047;BME280;11187;49.412;20.956;2022-12-18T08:40:11;96686.50;;;-4.85;96.35
22047;BME280;11187;49.412;20.956;2022-12-18T08:42:58;96686.78;;;-4.80;95.72
22047;BME280;11187;49.412;20.956;2022-12-18T08:45:50;96677.09;;;-4.75;95.36
22047;BME280;11187;49.412;20.956;2022-12-18T08:48:36;96686.13;;;-4.77;95.55
22047;BME280;11187;49.412;20.956;2022-12-18T08:51:10;96684.41;;;-4.78;96.00
22047;BME280;11187;49.412;20.956;2022-12-18T08:53:56;96686.69;;;-4.82;95.64
22047;BME280;11187;49.412;20.956;2022-12-18T08:56:32;96684.78;;;-4.86;95.75
22047;BME280;11187;49.412;20.956;2022-12-18T08:59:19;96684.00;;;-4.85;96.03
22047;BME280;11187;49.412;20.956;2022-12-18T09:01:55;96685.94;;;-4.80;95.73
22047;BME280;11187;49.412;20.956;2022-12-18T09:04:42;96687.88;;;-4.76;95.73
22047;BME280;11187;49.412;20.956;2022-12-18T09:07:22;96687.31;;;-4.72;95.19
22047;BME280;11187;49.412;20.956;2022-12-18T09:10:09;96683.94;;;-4.73;94.67
22047;BME280;11187;49.412;20.956;2022-12-18T09:12:44;96686.44;;;-4.73;94.51
22047;BME280;11187;49.412;20.956;2022-12-18T09:15:42;96690.88;;;-4.69;94.58
22047;BME280;11187;49.412;20.956;2022-12-18T09:18:17;96697.81;;;-4.65;94.53
22047;BME280;11187;49.412;20.956;2022-12-18T09:21:16;96702.00;;;-4.64;94.84
22047;BME280;11187;49.412;20.956;2022-12-18T09:24:15;96699.63;;;-4.62;95.07
22047;BME280;11187;49.412;20.956;2022-12-18T09:26:53;96691.28;;;-4.63;94.55
22047;BME280;11187;49.412;20.956;2022-12-18T09:29:40;96693.22;;;-4.58;94.71
22047;BME280;11187;49.412;20.956;2022-12-18T09:32:14;96699.94;;;-4.57;94.88
22047;BME280;11187;49.412;20.956;2022-12-18T09:35:00;96701.56;;;-4.58;95.01
22047;BME280;11187;49.412;20.956;2022-12-18T09:37:37;96699.81;;;-4.59;94.70
22047;BME280;11187;49.412;20.956;2022-12-18T09:40:35;96708.19;;;-4.58;95.21
22047;BME280;11187;49.412;20.956;2022-12-18T09:43:35;96707.72;;;-4.53;94.58
22047;BME280;11187;49.412;20.956;2022-12-18T09:46:19;96701.97;;;-4.52;95.04
22047;BME280;11187;49.412;20.956;2022-12-18T09:49:18;96694.66;;;-4.49;94.86
22047;BME280;11187;49.412;20.956;2022-12-18T09:51:56;96696.19;;;-4.51;94.37
22047;BME280;11187;49.412;20.956;2022-12-18T09:54:49;96696.19;;;-4.51;94.92
22047;BME280;11187;49.412;20.956;2022-12-18T09:57:31;96692.91;;;-4.50;94.97
22047;BME280;11187;49.412;20.956;2022-12-18T10:00:22;96697.28;;;-4.47;95.34
22047;BME280;11187;49.412;20.956;2022-12-18T10:03:03;96690.69;;;-4.45;95.01
22047;BME280;11187;49.412;20.956;2022-12-18T10:06:08;96699.28;;;-4.42;94.82
22047;BME280;11187;49.412;20.956;2022-12-18T10:12:39;96698.06;;;-4.22;94.89
22047;BME280;11187;49.412;20.956;2022-12-18T10:19:06;96697.56;;;-4.16;94.88
22047;BME280;11187;49.412;20.956;2022-12-18T10:28:18;96688.50;;;-4.27;94.68
22047;BME280;11187;49.412;20.956;2022-12-18T10:31:20;96695.16;;;-4.28;94.54
22047;BME280;11187;49.412;20.956;2022-12-18T10:33:55;96695.84;;;-4.30;94.43
22047;BME280;11187;49.412;20.956;2022-12-18T10:36:48;96690.25;;;-4.26;94.92
22047;BME280;11187;49.412;20.956;2022-12-18T10:39:43;96683.22;;;-4.32;94.32
22047;BME280;11187;49.412;20.956;2022-12-18T10:42:19;96696.22;;;-4.24;94.61
22047;BME280;11187;49.412;20.956;2022-12-18T10:45:13;96694.19;;;-4.16;95.02
22047;BME280;11187;49.412;20.956;2022-12-18T10:47:48;96690.00;;;-4.17;93.58
22047;BME280;11187;49.412;20.956;2022-12-18T10:50:36;96689.38;;;-4.13;95.21
22047;BME280;11187;49.412;20.956;2022-12-18T10:53:31;96691.31;;;-4.09;95.24
22047;BME280;11187;49.412;20.956;2022-12-18T10:56:20;96700.00;;;-4.04;95.07
22047;BME280;11187;49.412;20.956;2022-12-18T10:59:07;96694.59;;;-3.97;95.31
22047;BME280;11187;49.412;20.956;2022-12-18T11:02:25;96696.91;;;-3.87;95.41
22047;BME280;11187;49.412;20.956;2022-12-18T11:05:00;96696.50;;;-3.80;95.09
22047;BME280;11187;49.412;20.956;2022-12-18T11:07:54;96686.09;;;-3.72;94.94
22047;BME280;11187;49.412;20.956;2022-12-18T11:10:48;96684.38;;;-3.73;94.58
22047;BME280;11187;49.412;20.956;2022-12-18T11:13:24;96673.41;;;-3.75;94.95
22047;BME280;11187;49.412;20.956;2022-12-18T11:16:18;96679.25;;;-3.75;94.95
22047;BME280;11187;49.412;20.956;2022-12-18T11:18:52;96673.13;;;-3.80;94.91
22047;BME280;11187;49.412;20.956;2022-12-18T11:21:40;96669.66;;;-3.82;94.99
22047;BME280;11187;49.412;20.956;2022-12-18T11:24:29;96665.72;;;-3.79;95.25
22047;BME280;11187;49.412;20.956;2022-12-18T11:27:18;96670.50;;;-3.82;95.16
22047;BME280;11187;49.412;20.956;2022-12-18T11:29:51;96661.41;;;-3.81;95.03
22047;BME280;11187;49.412;20.956;2022-12-18T11:32:40;96661.75;;;-3.75;95.35
22047;BME280;11187;49.412;20.956;2022-12-18T11:38:25;96670.44;;;-3.70;94.89
22047;BME280;11187;49.412;20.956;2022-12-18T11:41:30;96673.00;;;-3.68;94.73
22047;BME280;11187;49.412;20.956;2022-12-18T11:44:49;96669.63;;;-3.69;94.18
22047;BME280;11187;49.412;20.956;2022-12-18T11:48:09;96670.69;;;-3.65;94.44
22047;BME280;11187;49.412;20.956;2022-12-18T11:50:50;96667.41;;;-3.64;94.21
22047;BME280;11187;49.412;20.956;2022-12-18T11:53:38;96669.22;;;-3.62;94.16
22047;BME280;11187;49.412;20.956;2022-12-18T11:59:55;96674.63;;;-3.69;94.10
22047;BME280;11187;49.412;20.956;2022-12-18T12:20:26;96691.31;;;-3.69;92.93
22047;BME280;11187;49.412;20.956;2022-12-18T12:26:44;96692.28;;;-3.67;93.81
22047;BME280;11187;49.412;20.956;2022-12-18T12:30:02;96696.19;;;-3.71;93.77
22047;BME280;11187;49.412;20.956;2022-12-18T12:41:30;96697.69;;;-4.01;94.28
22047;BME280;11187;49.412;20.956;2022-12-18T12:44:48;96707.56;;;-4.03;94.44
22047;BME280;11187;49.412;20.956;2022-12-18T12:47:43;96705.56;;;-4.08;94.54
22047;BME280;11187;49.412;20.956;2022-12-18T12:50:19;96707.00;;;-4.12;94.65
22047;BME280;11187;49.412;20.956;2022-12-18T12:53:09;96719.88;;;-4.19;94.23
22047;BME280;11187;49.412;20.956;2022-12-18T12:55:47;96718.75;;;-4.24;93.95
22047;BME280;11187;49.412;20.956;2022-12-18T12:58:43;96730.28;;;-4.26;94.13
22047;BME280;11187;49.412;20.956;2022-12-18T13:01:41;96732.78;;;-4.26;94.65
22047;BME280;11187;49.412;20.956;2022-12-18T13:04:38;96730.28;;;-4.26;94.50
22047;BME280;11187;49.412;20.956;2022-12-18T13:07:24;96733.44;;;-4.29;94.03
22047;BME280;11187;49.412;20.956;2022-12-18T13:12:57;96743.34;;;-4.30;94.35
22047;BME280;11187;49.412;20.956;2022-12-18T13:16:06;96744.28;;;-4.42;94.52
22047;BME280;11187;49.412;20.956;2022-12-18T13:19:00;96751.06;;;-4.52;94.21
22047;BME280;11187;49.412;20.956;2022-12-18T13:21:34;96746.75;;;-4.55;94.67
22047;BME280;11187;49.412;20.956;2022-12-18T13:24:27;96743.81;;;-4.61;94.61
22047;BME280;11187;49.412;20.956;2022-12-18T13:36:23;96769.66;;;-4.74;95.46
22047;BME280;11187;49.412;20.956;2022-12-18T13:45:40;96790.75;;;-4.82;95.41
22047;BME280;11187;49.412;20.956;2022-12-18T13:48:37;96789.59;;;-4.87;95.67
22047;BME280;11187;49.412;20.956;2022-12-18T13:51:33;96788.59;;;-4.89;95.85
22047;BME280;11187;49.412;20.956;2022-12-18T13:54:19;96788.28;;;-4.94;96.05
22047;BME280;11187;49.412;20.956;2022-12-18T13:57:36;96791.34;;;-4.98;95.99
22047;BME280;11187;49.412;20.956;2022-12-18T14:03:25;96797.91;;;-5.12;96.21
22047;BME280;11187;49.412;20.956;2022-12-18T14:06:22;96799.22;;;-5.17;96.32
22047;BME280;11187;49.412;20.956;2022-12-18T14:08:58;96802.94;;;-5.23;96.28
22047;BME280;11187;49.412;20.956;2022-12-18T14:11:49;96801.84;;;-5.27;96.29
22047;BME280;11187;49.412;20.956;2022-12-18T14:14:22;96797.50;;;-5.30;96.26
22047;BME280;11187;49.412;20.956;2022-12-18T14:17:12;96800.44;;;-5.35;96.54
22047;BME280;11187;49.412;20.956;2022-12-18T14:19:48;96802.72;;;-5.38;96.37
22047;BME280;11187;49.412;20.956;2022-12-18T14:22:37;96809.03;;;-5.43;96.42
22047;BME280;11187;49.412;20.956;2022-12-18T14:25:17;96815.34;;;-5.49;96.58
22047;BME280;11187;49.412;20.956;2022-12-18T14:30:45;96809.81;;;-5.56;96.49
22047;BME280;11187;49.412;20.956;2022-12-18T14:33:32;96824.88;;;-5.67;96.27
22047;BME280;11187;49.412;20.956;2022-12-18T14:36:06;96827.59;;;-5.75;96.42
22047;BME280;11187;49.412;20.956;2022-12-18T14:39:01;96827.13;;;-5.81;96.54
22047;BME280;11187;49.412;20.956;2022-12-18T14:41:34;96826.72;;;-5.88;96.42
22047;BME280;11187;49.412;20.956;2022-12-18T14:44:21;96836.25;;;-5.94;96.54
22047;BME280;11187;49.412;20.956;2022-12-18T14:47:15;96841.06;;;-5.97;96.74
22047;BME280;11187;49.412;20.956;2022-12-18T14:49:55;96840.72;;;-6.01;96.92
22047;BME280;11187;49.412;20.956;2022-12-18T14:52:38;96840.38;;;-6.06;96.91
22047;BME280;11187;49.412;20.956;2022-12-18T14:55:18;96841.66;;;-6.11;96.55
22047;BME280;11187;49.412;20.956;2022-12-18T14:58:15;96845.22;;;-6.19;96.45
22047;BME280;11187;49.412;20.956;2022-12-18T15:01:18;96855.28;;;-6.30;96.45
22047;BME280;11187;49.412;20.956;2022-12-18T15:03:53;96852.75;;;-6.41;96.94
22047;BME280;11187;49.412;20.956;2022-12-18T15:06:47;96855.41;;;-6.50;96.99
22047;BME280;11187;49.412;20.956;2022-12-18T15:09:42;96865.81;;;-6.56;97.25
22047;BME280;11187;49.412;20.956;2022-12-18T15:12:26;96857.00;;;-6.62;97.22
22047;BME280;11187;49.412;20.956;2022-12-18T15:21:11;96871.38;;;-6.92;97.00
22047;BME280;11187;49.412;20.956;2022-12-18T15:24:17;96863.19;;;-7.01;97.53
22047;BME280;11187;49.412;20.956;2022-12-18T15:26:51;96864.34;;;-7.08;97.34
22047;BME280;11187;49.412;20.956;2022-12-18T15:29:38;96865.50;;;-7.15;97.39
22047;BME280;11187;49.412;20.956;2022-12-18T15:32:19;96866.41;;;-7.24;97.35
22047;BME280;11187;49.412;20.956;2022-12-18T15:35:22;96873.25;;;-7.32;97.62
22047;BME280;11187;49.412;20.956;2022-12-18T15:37:55;96874.41;;;-7.39;97.60
22047;BME280;11187;49.412;20.956;2022-12-18T15:40:49;96866.34;;;-7.46;97.74
22047;BME280;11187;49.412;20.956;2022-12-18T15:43:44;96870.56;;;-7.45;97.95
22047;BME280;11187;49.412;20.956;2022-12-18T15:46:38;96872.81;;;-7.48;97.33
22047;BME280;11187;49.412;20.956;2022-12-18T15:49:32;96877.44;;;-7.53;97.27
22047;BME280;11187;49.412;20.956;2022-12-18T15:52:05;96879.06;;;-7.64;96.99
22047;BME280;11187;49.412;20.956;2022-12-18T15:54:52;96880.19;;;-7.70;97.14
22047;BME280;11187;49.412;20.956;2022-12-18T15:57:43;96886.66;;;-7.72;97.48
22047;BME280;11187;49.412;20.956;2022-12-18T16:00:30;96891.41;;;-7.75;97.27
22047;BME280;11187;49.412;20.956;2022-12-18T16:03:04;96900.13;;;-7.81;97.04